sensor_id;sensor_type;location;lat;lon;timestamp;P1;durP1;ratioP1;P2;durP2;ratioP2
65710;SDS011;52690;54.496;9.030;2023-04-25T00:00:35;17.30;;;3.03;;
65710;SDS011;52690;54.496;9.030;2023-04-25T00:02:35;18.42;;;3.55;;
65710;SDS011;52690;54.496;9.030;2023-04-25T00:04:35;17.90;;;2.60;;
65710;SDS011;52690;54.496;9.030;2023-04-25T00:06:36;21.17;;;3.37;;
65710;SDS011;52690;54.496;9.030;2023-04-25T00:08:36;15.25;;;2.70;;
65710;SDS011;52690;54.496;9.030;2023-04-25T00:10:37;13.70;;;2.63;;
65710;SDS011;52690;54.496;9.030;2023-04-25T00:12:38;19.90;;;3.25;;
65710;SDS011;52690;54.496;9.030;2023-04-25T00:14:38;15.60;;;2.80;;
65710;SDS011;52690;54.496;9.030;2023-04-25T00:16:38;13.43;;;2.57;;
65710;SDS011;52690;54.496;9.030;2023-04-25T00:18:38;25.60;;;3.80;;
65710;SDS011;52690;54.496;9.030;2023-04-25T00:20:38;19.17;;;4.00;;
65710;SDS011;52690;54.496;9.030;2023-04-25T00:22:38;20.23;;;2.97;;
65710;SDS011;52690;54.496;9.030;2023-04-25T00:24:39;11.13;;;2.40;;
65710;SDS011;52690;54.496;9.030;2023-04-25T00:26:40;16.47;;;2.30;;
65710;SDS011;52690;54.496;9.030;2023-04-25T00:28:40;13.52;;;3.55;;
65710;SDS011;52690;54.496;9.030;2023-04-25T00:30:41;17.27;;;2.97;;
65710;SDS011;52690;54.496;9.030;2023-04-25T00:32:41;16.98;;;3.20;;
65710;SDS011;52690;54.496;9.030;2023-04-25T00:34:41;16.17;;;3.17;;
65710;SDS011;52690;54.496;9.030;2023-04-25T00:36:41;23.43;;;3.23;;
65710;SDS011;52690;54.496;9.030;2023-04-25T00:38:41;17.75;;;3.08;;
65710;SDS011;52690;54.496;9.030;2023-04-25T00:40:42;26.37;;;4.63;;
65710;SDS011;52690;54.496;9.030;2023-04-25T00:42:43;27.40;;;3.73;;
65710;SDS011;52690;54.496;9.030;2023-04-25T00:44:44;23.65;;;3.33;;
65710;SDS011;52690;54.496;9.030;2023-04-25T00:46:44;19.17;;;3.95;;
65710;SDS011;52690;54.496;9.030;2023-04-25T00:48:46;22.58;;;3.80;;
65710;SDS011;52690;54.496;9.030;2023-04-25T00:50:48;27.73;;;4.00;;
65710;SDS011;52690;54.496;9.030;2023-04-25T00:52:50;25.25;;;4.75;;
65710;SDS011;52690;54.496;9.030;2023-04-25T00:54:50;20.00;;;3.58;;
65710;SDS011;52690;54.496;9.030;2023-04-25T00:56:51;18.87;;;3.43;;
65710;SDS011;52690;54.496;9.030;2023-04-25T00:58:53;20.58;;;3.60;;
65710;SDS011;52690;54.496;9.030;2023-04-25T01:00:53;22.58;;;3.50;;
65710;SDS011;52690;54.496;9.030;2023-04-25T01:02:53;20.20;;;3.53;;
65710;SDS011;52690;54.496;9.030;2023-04-25T01:04:53;18.90;;;2.90;;
65710;SDS011;52690;54.496;9.030;2023-04-25T01:06:53;16.50;;;2.97;;
65710;SDS011;52690;54.496;9.030;2023-04-25T01:08:53;20.75;;;3.20;;
65710;SDS011;52690;54.496;9.030;2023-04-25T01:10:54;21.02;;;3.17;;
65710;SDS011;52690;54.496;9.030;2023-04-25T01:12:54;19.73;;;3.97;;
65710;SDS011;52690;54.496;9.030;2023-04-25T01:14:55;19.52;;;3.17;;
65710;SDS011;52690;54.496;9.030;2023-04-25T01:16:56;23.88;;;3.53;;
65710;SDS011;52690;54.496;9.030;2023-04-25T01:18:56;17.77;;;3.20;;
65710;SDS011;52690;54.496;9.030;2023-04-25T01:20:56;14.68;;;2.50;;
65710;SDS011;52690;54.496;9.030;2023-04-25T01:22:59;22.73;;;3.53;;
65710;SDS011;52690;54.496;9.030;2023-04-25T01:25:00;22.23;;;3.03;;
65710;SDS011;52690;54.496;9.030;2023-04-25T01:27:00;20.88;;;3.70;;
65710;SDS011;52690;54.496;9.030;2023-04-25T01:29:00;28.67;;;3.85;;
65710;SDS011;52690;54.496;9.030;2023-04-25T01:31:01;19.07;;;3.47;;
65710;SDS011;52690;54.496;9.030;2023-04-25T01:33:01;20.05;;;3.47;;
65710;SDS011;52690;54.496;9.030;2023-04-25T01:35:03;20.75;;;3.05;;
65710;SDS011;52690;54.496;9.030;2023-04-25T01:37:03;16.85;;;3.83;;
65710;SDS011;52690;54.496;9.030;2023-04-25T01:39:05;16.50;;;2.43;;
65710;SDS011;52690;54.496;9.030;2023-04-25T01:41:05;16.90;;;3.25;;
65710;SDS011;52690;54.496;9.030;2023-04-25T01:43:05;17.10;;;2.83;;
65710;SDS011;52690;54.496;9.030;2023-04-25T01:45:06;16.85;;;3.00;;
65710;SDS011;52690;54.496;9.030;2023-04-25T01:47:06;19.65;;;2.88;;
65710;SDS011;52690;54.496;9.030;2023-04-25T01:49:07;25.53;;;3.33;;
65710;SDS011;52690;54.496;9.030;2023-04-25T01:51:07;19.80;;;2.90;;
65710;SDS011;52690;54.496;9.030;2023-04-25T01:53:07;22.17;;;3.40;;
65710;SDS011;52690;54.496;9.030;2023-04-25T01:55:09;14.15;;;2.67;;
65710;SDS011;52690;54.496;9.030;2023-04-25T01:57:10;14.50;;;2.42;;
65710;SDS011;52690;54.496;9.030;2023-04-25T01:59:10;17.13;;;2.85;;
65710;SDS011;52690;54.496;9.030;2023-04-25T02:01:10;16.37;;;2.67;;
65710;SDS011;52690;54.496;9.030;2023-04-25T02:03:10;20.10;;;2.50;;
65710;SDS011;52690;54.496;9.030;2023-04-25T02:05:10;18.80;;;3.43;;
65710;SDS011;52690;54.496;9.030;2023-04-25T02:07:11;11.77;;;2.90;;
65710;SDS011;52690;54.496;9.030;2023-04-25T02:09:11;29.30;;;3.30;;
65710;SDS011;52690;54.496;9.030;2023-04-25T02:11:12;18.57;;;3.07;;
65710;SDS011;52690;54.496;9.030;2023-04-25T02:13:12;14.27;;;2.47;;
65710;SDS011;52690;54.496;9.030;2023-04-25T02:15:13;22.43;;;3.87;;
65710;SDS011;52690;54.496;9.030;2023-04-25T02:17:13;15.88;;;3.15;;
65710;SDS011;52690;54.496;9.030;2023-04-25T02:19:13;20.07;;;3.13;;
65710;SDS011;52690;54.496;9.030;2023-04-25T02:21:13;18.47;;;3.13;;
65710;SDS011;52690;54.496;9.030;2023-04-25T02:23:13;22.77;;;3.33;;
65710;SDS011;52690;54.496;9.030;2023-04-25T02:25:14;13.63;;;2.80;;
65710;SDS011;52690;54.496;9.030;2023-04-25T02:27:15;11.27;;;2.90;;
65710;SDS011;52690;54.496;9.030;2023-04-25T02:29:15;24.30;;;3.28;;
65710;SDS011;52690;54.496;9.030;2023-04-25T02:31:15;13.98;;;2.78;;
65710;SDS011;52690;54.496;9.030;2023-04-25T02:33:16;19.67;;;3.08;;
65710;SDS011;52690;54.496;9.030;2023-04-25T02:35:16;15.53;;;2.97;;
65710;SDS011;52690;54.496;9.030;2023-04-25T02:37:16;17.30;;;3.37;;
65710;SDS011;52690;54.496;9.030;2023-04-25T02:39:16;18.50;;;2.80;;
65710;SDS011;52690;54.496;9.030;2023-04-25T02:41:17;22.67;;;3.00;;
65710;SDS011;52690;54.496;9.030;2023-04-25T02:43:18;19.83;;;2.53;;
65710;SDS011;52690;54.496;9.030;2023-04-25T02:45:18;20.90;;;2.72;;
65710;SDS011;52690;54.496;9.030;2023-04-25T02:47:18;16.50;;;2.60;;
65710;SDS011;52690;54.496;9.030;2023-04-25T02:49:19;16.77;;;3.43;;
65710;SDS011;52690;54.496;9.030;2023-04-25T02:51:19;18.80;;;2.50;;
65710;SDS011;52690;54.496;9.030;2023-04-25T02:53:19;19.17;;;2.87;;
65710;SDS011;52690;54.496;9.030;2023-04-25T02:55:19;15.40;;;2.87;;
65710;SDS011;52690;54.496;9.030;2023-04-25T02:57:19;22.00;;;3.30;;
65710;SDS011;52690;54.496;9.030;2023-04-25T02:59:21;12.77;;;2.43;;
65710;SDS011;52690;54.496;9.030;2023-04-25T03:01:21;14.68;;;2.45;;
65710;SDS011;52690;54.496;9.030;2023-04-25T03:03:21;13.17;;;2.37;;
65710;SDS011;52690;54.496;9.030;2023-04-25T03:05:21;13.57;;;2.43;;
65710;SDS011;52690;54.496;9.030;2023-04-25T03:07:21;12.47;;;2.77;;
65710;SDS011;52690;54.496;9.030;2023-04-25T03:09:21;11.30;;;2.50;;
65710;SDS011;52690;54.496;9.030;2023-04-25T03:11:22;9.10;;;2.47;;
65710;SDS011;52690;54.496;9.030;2023-04-25T03:13:22;12.90;;;2.30;;
65710;SDS011;52690;54.496;9.030;2023-04-25T03:15:23;22.47;;;3.23;;
65710;SDS011;52690;54.496;9.030;2023-04-25T03:17:23;15.40;;;3.65;;
65710;SDS011;52690;54.496;9.030;2023-04-25T03:19:24;23.70;;;3.35;;
65710;SDS011;52690;54.496;9.030;2023-04-25T03:21:24;22.13;;;3.13;;
65710;SDS011;52690;54.496;9.030;2023-04-25T03:23:24;18.53;;;3.53;;
65710;SDS011;52690;54.496;9.030;2023-04-25T03:25:24;19.17;;;2.77;;
65710;SDS011;52690;54.496;9.030;2023-04-25T03:27:24;10.17;;;2.43;;
65710;SDS011;52690;54.496;9.030;2023-04-25T03:29:24;14.83;;;2.90;;
65710;SDS011;52690;54.496;9.030;2023-04-25T03:31:26;17.30;;;2.37;;
65710;SDS011;52690;54.496;9.030;2023-04-25T03:33:26;13.15;;;2.30;;
65710;SDS011;52690;54.496;9.030;2023-04-25T03:35:26;8.63;;;1.77;;
65710;SDS011;52690;54.496;9.030;2023-04-25T03:37:26;14.77;;;1.97;;
65710;SDS011;52690;54.496;9.030;2023-04-25T03:39:27;12.87;;;2.00;;
65710;SDS011;52690;54.496;9.030;2023-04-25T03:41:27;13.40;;;1.67;;
65710;SDS011;52690;54.496;9.030;2023-04-25T03:43:27;9.33;;;2.30;;
65710;SDS011;52690;54.496;9.030;2023-04-25T03:45:27;14.40;;;2.55;;
65710;SDS011;52690;54.496;9.030;2023-04-25T03:47:29;16.27;;;2.37;;
65710;SDS011;52690;54.496;9.030;2023-04-25T03:49:29;17.08;;;2.55;;
65710;SDS011;52690;54.496;9.030;2023-04-25T03:51:29;14.73;;;2.37;;
65710;SDS011;52690;54.496;9.030;2023-04-25T03:53:29;13.47;;;2.23;;
65710;SDS011;52690;54.496;9.030;2023-04-25T03:55:29;17.67;;;2.53;;
65710;SDS011;52690;54.496;9.030;2023-04-25T03:57:29;15.50;;;2.73;;
65710;SDS011;52690;54.496;9.030;2023-04-25T03:59:30;15.57;;;3.03;;
65710;SDS011;52690;54.496;9.030;2023-04-25T04:01:30;14.07;;;2.30;;
65710;SDS011;52690;54.496;9.030;2023-04-25T04:03:31;18.13;;;2.93;;
65710;SDS011;52690;54.496;9.030;2023-04-25T04:05:31;15.32;;;2.38;;
65710;SDS011;52690;54.496;9.030;2023-04-25T04:07:32;23.17;;;2.70;;
65710;SDS011;52690;54.496;9.030;2023-04-25T04:09:32;20.63;;;3.53;;
65710;SDS011;52690;54.496;9.030;2023-04-25T04:11:32;15.07;;;2.70;;
65710;SDS011;52690;54.496;9.030;2023-04-25T04:13:32;12.53;;;3.00;;
65710;SDS011;52690;54.496;9.030;2023-04-25T04:15:32;20.17;;;3.10;;
65710;SDS011;52690;54.496;9.030;2023-04-25T04:17:32;23.00;;;3.20;;
65710;SDS011;52690;54.496;9.030;2023-04-25T04:19:34;12.07;;;2.88;;
65710;SDS011;52690;54.496;9.030;2023-04-25T04:21:34;21.40;;;3.22;;
65710;SDS011;52690;54.496;9.030;2023-04-25T04:23:34;12.77;;;2.57;;
65710;SDS011;52690;54.496;9.030;2023-04-25T04:25:34;15.37;;;2.37;;
65710;SDS011;52690;54.496;9.030;2023-04-25T04:27:34;17.27;;;2.53;;
65710;SDS011;52690;54.496;9.030;2023-04-25T04:29:35;23.15;;;3.75;;
65710;SDS011;52690;54.496;9.030;2023-04-25T04:31:35;23.97;;;2.90;;
65710;SDS011;52690;54.496;9.030;2023-04-25T04:33:35;15.40;;;2.50;;
65710;SDS011;52690;54.496;9.030;2023-04-25T04:35:37;16.13;;;2.75;;
65710;SDS011;52690;54.496;9.030;2023-04-25T04:37:37;20.13;;;3.90;;
65710;SDS011;52690;54.496;9.030;2023-04-25T04:39:37;24.17;;;3.17;;
65710;SDS011;52690;54.496;9.030;2023-04-25T04:41:37;16.13;;;2.83;;
65710;SDS011;52690;54.496;9.030;2023-04-25T04:43:37;18.30;;;2.60;;
65710;SDS011;52690;54.496;9.030;2023-04-25T04:45:38;21.93;;;3.10;;
65710;SDS011;52690;54.496;9.030;2023-04-25T04:47:38;17.77;;;3.13;;
65710;SDS011;52690;54.496;9.030;2023-04-25T04:49:38;17.20;;;2.85;;
65710;SDS011;52690;54.496;9.030;2023-04-25T04:51:39;18.37;;;2.43;;
65710;SDS011;52690;54.496;9.030;2023-04-25T04:53:40;19.92;;;2.60;;
65710;SDS011;52690;54.496;9.030;2023-04-25T04:55:40;15.07;;;2.47;;
65710;SDS011;52690;54.496;9.030;2023-04-25T04:57:40;20.83;;;2.60;;
65710;SDS011;52690;54.496;9.030;2023-04-25T04:59:40;14.03;;;3.23;;
65710;SDS011;52690;54.496;9.030;2023-04-25T05:01:40;13.70;;;2.97;;
65710;SDS011;52690;54.496;9.030;2023-04-25T05:03:40;17.97;;;2.80;;
65710;SDS011;52690;54.496;9.030;2023-04-25T05:05:40;17.67;;;2.60;;
65710;SDS011;52690;54.496;9.030;2023-04-25T05:07:42;19.27;;;3.30;;
65710;SDS011;52690;54.496;9.030;2023-04-25T05:09:42;12.13;;;2.25;;
65710;SDS011;52690;54.496;9.030;2023-04-25T05:11:42;15.73;;;3.30;;
65710;SDS011;52690;54.496;9.030;2023-04-25T05:13:42;19.87;;;2.50;;
65710;SDS011;52690;54.496;9.030;2023-04-25T05:15:43;20.50;;;3.17;;
65710;SDS011;52690;54.496;9.030;2023-04-25T05:17:43;15.70;;;2.43;;
65710;SDS011;52690;54.496;9.030;2023-04-25T05:19:43;15.83;;;2.77;;
65710;SDS011;52690;54.496;9.030;2023-04-25T05:21:43;13.20;;;2.33;;
65710;SDS011;52690;54.496;9.030;2023-04-25T05:23:45;16.20;;;3.00;;
65710;SDS011;52690;54.496;9.030;2023-04-25T05:25:45;11.05;;;2.17;;
65710;SDS011;52690;54.496;9.030;2023-04-25T05:27:45;7.70;;;2.10;;
65710;SDS011;52690;54.496;9.030;2023-04-25T05:29:45;12.13;;;2.53;;
65710;SDS011;52690;54.496;9.030;2023-04-25T05:31:45;14.80;;;2.87;;
65710;SDS011;52690;54.496;9.030;2023-04-25T05:33:45;12.13;;;2.40;;
65710;SDS011;52690;54.496;9.030;2023-04-25T05:35:45;15.50;;;2.60;;
65710;SDS011;52690;54.496;9.030;2023-04-25T05:37:46;16.50;;;2.23;;
65710;SDS011;52690;54.496;9.030;2023-04-25T05:39:47;18.57;;;3.00;;
65710;SDS011;52690;54.496;9.030;2023-04-25T05:41:47;20.48;;;2.75;;
65710;SDS011;52690;54.496;9.030;2023-04-25T05:43:47;17.00;;;2.33;;
65710;SDS011;52690;54.496;9.030;2023-04-25T05:45:48;19.43;;;2.43;;
65710;SDS011;52690;54.496;9.030;2023-04-25T05:47:48;19.67;;;2.73;;
65710;SDS011;52690;54.496;9.030;2023-04-25T05:49:48;20.37;;;2.87;;
65710;SDS011;52690;54.496;9.030;2023-04-25T05:51:48;17.77;;;2.60;;
65710;SDS011;52690;54.496;9.030;2023-04-25T05:53:48;17.20;;;2.43;;
65710;SDS011;52690;54.496;9.030;2023-04-25T05:55:50;16.97;;;2.97;;
65710;SDS011;52690;54.496;9.030;2023-04-25T05:57:50;19.98;;;3.35;;
65710;SDS011;52690;54.496;9.030;2023-04-25T05:59:50;17.27;;;3.17;;
65710;SDS011;52690;54.496;9.030;2023-04-25T06:01:50;18.05;;;2.55;;
65710;SDS011;52690;54.496;9.030;2023-04-25T06:03:50;19.90;;;3.23;;
65710;SDS011;52690;54.496;9.030;2023-04-25T06:05:51;16.37;;;3.40;;
65710;SDS011;52690;54.496;9.030;2023-04-25T06:07:51;14.47;;;2.60;;
65710;SDS011;52690;54.496;9.030;2023-04-25T06:09:51;13.87;;;2.40;;
65710;SDS011;52690;54.496;9.030;2023-04-25T06:11:52;11.10;;;2.13;;
65710;SDS011;52690;54.496;9.030;2023-04-25T06:13:53;17.42;;;2.50;;
65710;SDS011;52690;54.496;9.030;2023-04-25T06:15:53;11.43;;;1.60;;
65710;SDS011;52690;54.496;9.030;2023-04-25T06:17:53;11.43;;;2.33;;
65710;SDS011;52690;54.496;9.030;2023-04-25T06:19:53;9.88;;;2.10;;
65710;SDS011;52690;54.496;9.030;2023-04-25T06:21:53;7.17;;;1.87;;
65710;SDS011;52690;54.496;9.030;2023-04-25T06:23:53;11.43;;;1.87;;
65710;SDS011;52690;54.496;9.030;2023-04-25T06:25:54;11.27;;;1.60;;
65710;SDS011;52690;54.496;9.030;2023-04-25T06:27:55;10.27;;;1.73;;
65710;SDS011;52690;54.496;9.030;2023-04-25T06:29:55;9.95;;;2.30;;
65710;SDS011;52690;54.496;9.030;2023-04-25T06:31:55;5.97;;;1.27;;
65710;SDS011;52690;54.496;9.030;2023-04-25T06:33:56;8.27;;;1.50;;
65710;SDS011;52690;54.496;9.030;2023-04-25T06:35:56;10.17;;;1.73;;
65710;SDS011;52690;54.496;9.030;2023-04-25T06:37:56;9.73;;;1.67;;
65710;SDS011;52690;54.496;9.030;2023-04-25T06:39:56;8.80;;;1.90;;
65710;SDS011;52690;54.496;9.030;2023-04-25T06:41:56;6.90;;;1.98;;
65710;SDS011;52690;54.496;9.030;2023-04-25T06:43:58;13.70;;;2.47;;
65710;SDS011;52690;54.496;9.030;2023-04-25T06:45:58;13.23;;;2.22;;
65710;SDS011;52690;54.496;9.030;2023-04-25T06:47:58;15.55;;;2.33;;
65710;SDS011;52690;54.496;9.030;2023-04-25T06:49:58;7.97;;;1.50;;
65710;SDS011;52690;54.496;9.030;2023-04-25T06:51:58;5.03;;;1.60;;
65710;SDS011;52690;54.496;9.030;2023-04-25T06:53:59;6.80;;;2.07;;
65710;SDS011;52690;54.496;9.030;2023-04-25T06:55:59;11.43;;;1.83;;
65710;SDS011;52690;54.496;9.030;2023-04-25T06:57:59;11.63;;;2.33;;
65710;SDS011;52690;54.496;9.030;2023-04-25T07:00:00;11.10;;;2.40;;
65710;SDS011;52690;54.496;9.030;2023-04-25T07:02:01;11.82;;;2.55;;
65710;SDS011;52690;54.496;9.030;2023-04-25T07:04:01;11.87;;;2.07;;
65710;SDS011;52690;54.496;9.030;2023-04-25T07:06:01;10.57;;;2.20;;
65710;SDS011;52690;54.496;9.030;2023-04-25T07:08:01;11.10;;;2.20;;
65710;SDS011;52690;54.496;9.030;2023-04-25T07:10:01;14.55;;;2.17;;
65710;SDS011;52690;54.496;9.030;2023-04-25T07:12:02;13.15;;;2.38;;
65710;SDS011;52690;54.496;9.030;2023-04-25T07:14:02;33.22;;;3.08;;
65710;SDS011;52690;54.496;9.030;2023-04-25T07:16:04;14.73;;;2.30;;
65710;SDS011;52690;54.496;9.030;2023-04-25T07:18:04;16.65;;;2.70;;
65710;SDS011;52690;54.496;9.030;2023-04-25T07:20:05;15.83;;;2.17;;
65710;SDS011;52690;54.496;9.030;2023-04-25T07:22:05;13.93;;;1.95;;
65710;SDS011;52690;54.496;9.030;2023-04-25T07:24:06;9.23;;;2.10;;
65710;SDS011;52690;54.496;9.030;2023-04-25T07:26:06;10.95;;;1.90;;
65710;SDS011;52690;54.496;9.030;2023-04-25T07:28:06;12.50;;;2.03;;
65710;SDS011;52690;54.496;9.030;2023-04-25T07:30:07;22.20;;;2.97;;
65710;SDS011;52690;54.496;9.030;2023-04-25T07:32:08;14.18;;;2.35;;
65710;SDS011;52690;54.496;9.030;2023-04-25T07:34:09;13.48;;;2.88;;
65710;SDS011;52690;54.496;9.030;2023-04-25T07:36:09;12.63;;;2.43;;
65710;SDS011;52690;54.496;9.030;2023-04-25T07:38:09;20.57;;;3.40;;
65710;SDS011;52690;54.496;9.030;2023-04-25T07:40:09;20.47;;;2.70;;
65710;SDS011;52690;54.496;9.030;2023-04-25T07:42:09;13.27;;;2.13;;
65710;SDS011;52690;54.496;9.030;2023-04-25T07:44:10;15.83;;;2.53;;
65710;SDS011;52690;54.496;9.030;2023-04-25T07:46:10;12.53;;;2.50;;
65710;SDS011;52690;54.496;9.030;2023-04-25T07:48:11;19.60;;;3.00;;
65710;SDS011;52690;54.496;9.030;2023-04-25T07:50:11;8.82;;;1.58;;
65710;SDS011;52690;54.496;9.030;2023-04-25T07:52:12;9.30;;;1.93;;
65710;SDS011;52690;54.496;9.030;2023-04-25T07:54:13;12.80;;;2.23;;
65710;SDS011;52690;54.496;9.030;2023-04-25T07:56:15;18.23;;;2.08;;
65710;SDS011;52690;54.496;9.030;2023-04-25T07:58:15;17.77;;;2.50;;
65710;SDS011;52690;54.496;9.030;2023-04-25T08:00:15;15.23;;;2.45;;
65710;SDS011;52690;54.496;9.030;2023-04-25T08:02:16;15.23;;;2.42;;
65710;SDS011;52690;54.496;9.030;2023-04-25T08:04:17;15.37;;;2.47;;
65710;SDS011;52690;54.496;9.030;2023-04-25T08:06:17;17.58;;;2.55;;
65710;SDS011;52690;54.496;9.030;2023-04-25T08:08:17;15.48;;;2.50;;
65710;SDS011;52690;54.496;9.030;2023-04-25T08:10:18;16.63;;;2.60;;
65710;SDS011;52690;54.496;9.030;2023-04-25T08:12:18;12.70;;;2.57;;
65710;SDS011;52690;54.496;9.030;2023-04-25T08:14:18;12.40;;;2.30;;
65710;SDS011;52690;54.496;9.030;2023-04-25T08:16:18;12.70;;;2.40;;
65710;SDS011;52690;54.496;9.030;2023-04-25T08:18:18;13.50;;;2.10;;
65710;SDS011;52690;54.496;9.030;2023-04-25T08:20:20;9.47;;;1.50;;
65710;SDS011;52690;54.496;9.030;2023-04-25T08:22:20;11.40;;;1.67;;
65710;SDS011;52690;54.496;9.030;2023-04-25T08:24:20;13.17;;;1.83;;
65710;SDS011;52690;54.496;9.030;2023-04-25T08:26:20;6.53;;;1.20;;
65710;SDS011;52690;54.496;9.030;2023-04-25T08:28:20;10.90;;;1.50;;
65710;SDS011;52690;54.496;9.030;2023-04-25T08:30:20;8.63;;;1.63;;
65710;SDS011;52690;54.496;9.030;2023-04-25T08:32:21;14.20;;;1.83;;
65710;SDS011;52690;54.496;9.030;2023-04-25T08:34:21;12.30;;;1.90;;
65710;SDS011;52690;54.496;9.030;2023-04-25T08:36:22;9.10;;;2.00;;
65710;SDS011;52690;54.496;9.030;2023-04-25T08:38:23;8.75;;;1.80;;
65710;SDS011;52690;54.496;9.030;2023-04-25T08:40:23;15.00;;;2.20;;
65710;SDS011;52690;54.496;9.030;2023-04-25T08:42:26;12.27;;;2.08;;
65710;SDS011;52690;54.496;9.030;2023-04-25T08:44:27;12.02;;;2.25;;
65710;SDS011;52690;54.496;9.030;2023-04-25T08:46:27;8.07;;;2.00;;
65710;SDS011;52690;54.496;9.030;2023-04-25T08:48:28;13.15;;;2.35;;
65710;SDS011;52690;54.496;9.030;2023-04-25T08:50:28;13.55;;;2.17;;
65710;SDS011;52690;54.496;9.030;2023-04-25T08:52:32;13.65;;;2.42;;
65710;SDS011;52690;54.496;9.030;2023-04-25T08:54:32;10.77;;;2.20;;
65710;SDS011;52690;54.496;9.030;2023-04-25T08:56:32;9.13;;;2.08;;
65710;SDS011;52690;54.496;9.030;2023-04-25T08:58:33;7.88;;;1.80;;
65710;SDS011;52690;54.496;9.030;2023-04-25T09:00:33;7.05;;;1.35;;
65710;SDS011;52690;54.496;9.030;2023-04-25T09:02:33;7.45;;;1.33;;
65710;SDS011;52690;54.496;9.030;2023-04-25T09:04:34;9.57;;;1.95;;
65710;SDS011;52690;54.496;9.030;2023-04-25T09:06:34;6.13;;;1.43;;
65710;SDS011;52690;54.496;9.030;2023-04-25T09:08:37;15.00;;;2.10;;
65710;SDS011;52690;54.496;9.030;2023-04-25T09:10:37;10.20;;;2.00;;
65710;SDS011;52690;54.496;9.030;2023-04-25T09:12:38;11.55;;;2.17;;
65710;SDS011;52690;54.496;9.030;2023-04-25T09:14:38;11.20;;;2.20;;
65710;SDS011;52690;54.496;9.030;2023-04-25T09:18:53;16.02;;;2.42;;
65710;SDS011;52690;54.496;9.030;2023-04-25T09:20:53;13.43;;;1.47;;
65710;SDS011;52690;54.496;9.030;2023-04-25T09:23:03;9.88;;;1.73;;
65710;SDS011;52690;54.496;9.030;2023-04-25T09:25:08;13.57;;;1.83;;
65710;SDS011;52690;54.496;9.030;2023-04-25T09:27:09;16.85;;;1.90;;
65710;SDS011;52690;54.496;9.030;2023-04-25T09:29:10;10.98;;;1.55;;
65710;SDS011;52690;54.496;9.030;2023-04-25T09:31:10;9.97;;;1.40;;
65710;SDS011;52690;54.496;9.030;2023-04-25T09:33:10;13.23;;;1.30;;
65710;SDS011;52690;54.496;9.030;2023-04-25T09:35:11;2.67;;;0.80;;
65710;SDS011;52690;54.496;9.030;2023-04-25T09:37:23;6.15;;;1.50;;
65710;SDS011;52690;54.496;9.030;2023-04-25T09:39:23;8.85;;;1.10;;
65710;SDS011;52690;54.496;9.030;2023-04-25T09:41:29;7.05;;;1.13;;
65710;SDS011;52690;54.496;9.030;2023-04-25T09:43:29;11.18;;;1.30;;
65710;SDS011;52690;54.496;9.030;2023-04-25T09:45:29;10.90;;;1.90;;
65710;SDS011;52690;54.496;9.030;2023-04-25T09:47:30;11.07;;;1.57;;
65710;SDS011;52690;54.496;9.030;2023-04-25T09:49:30;11.33;;;1.60;;
65710;SDS011;52690;54.496;9.030;2023-04-25T09:51:30;8.17;;;1.93;;
65710;SDS011;52690;54.496;9.030;2023-04-25T09:53:30;11.73;;;2.73;;
65710;SDS011;52690;54.496;9.030;2023-04-25T09:55:31;10.07;;;2.10;;
65710;SDS011;52690;54.496;9.030;2023-04-25T09:57:33;13.82;;;1.92;;
65710;SDS011;52690;54.496;9.030;2023-04-25T09:59:33;12.25;;;2.20;;
65710;SDS011;52690;54.496;9.030;2023-04-25T10:01:35;12.80;;;1.90;;
65710;SDS011;52690;54.496;9.030;2023-04-25T10:03:36;10.52;;;1.65;;
65710;SDS011;52690;54.496;9.030;2023-04-25T10:05:36;4.53;;;1.08;;
65710;SDS011;52690;54.496;9.030;2023-04-25T10:07:37;6.03;;;1.33;;
65710;SDS011;52690;54.496;9.030;2023-04-25T10:09:38;4.68;;;1.20;;
65710;SDS011;52690;54.496;9.030;2023-04-25T10:11:39;5.95;;;1.38;;
65710;SDS011;52690;54.496;9.030;2023-04-25T10:13:41;9.07;;;1.48;;
65710;SDS011;52690;54.496;9.030;2023-04-25T10:15:42;7.13;;;1.60;;
65710;SDS011;52690;54.496;9.030;2023-04-25T10:17:42;9.93;;;1.93;;
65710;SDS011;52690;54.496;9.030;2023-04-25T10:19:43;9.45;;;1.73;;
65710;SDS011;52690;54.496;9.030;2023-04-25T10:21:44;12.70;;;1.80;;
65710;SDS011;52690;54.496;9.030;2023-04-25T10:23:46;7.88;;;2.00;;
65710;SDS011;52690;54.496;9.030;2023-04-25T10:25:46;5.00;;;0.98;;
65710;SDS011;52690;54.496;9.030;2023-04-25T10:27:47;3.92;;;0.88;;
65710;SDS011;52690;54.496;9.030;2023-04-25T10:29:51;4.90;;;1.20;;
65710;SDS011;52690;54.496;9.030;2023-04-25T10:31:59;6.65;;;0.98;;
65710;SDS011;52690;54.496;9.030;2023-04-25T10:33:59;5.83;;;1.10;;
65710;SDS011;52690;54.496;9.030;2023-04-25T10:36:08;1.93;;;0.80;;
65710;SDS011;52690;54.496;9.030;2023-04-25T10:38:09;5.38;;;1.10;;
65710;SDS011;52690;54.496;9.030;2023-04-25T10:40:09;4.80;;;1.00;;
65710;SDS011;52690;54.496;9.030;2023-04-25T10:42:10;7.22;;;1.70;;
65710;SDS011;52690;54.496;9.030;2023-04-25T10:44:11;5.70;;;1.02;;
65710;SDS011;52690;54.496;9.030;2023-04-25T10:46:19;7.23;;;1.30;;
65710;SDS011;52690;54.496;9.030;2023-04-25T10:48:24;7.97;;;1.40;;
65710;SDS011;52690;54.496;9.030;2023-04-25T10:50:25;13.68;;;2.35;;
65710;SDS011;52690;54.496;9.030;2023-04-25T10:52:38;15.43;;;2.88;;
65710;SDS011;52690;54.496;9.030;2023-04-25T10:54:40;9.98;;;2.05;;
65710;SDS011;52690;54.496;9.030;2023-04-25T10:56:40;8.52;;;1.98;;
65710;SDS011;52690;54.496;9.030;2023-04-25T10:58:41;13.35;;;2.55;;
65710;SDS011;52690;54.496;9.030;2023-04-25T11:00:42;18.63;;;2.50;;
65710;SDS011;52690;54.496;9.030;2023-04-25T11:02:44;10.27;;;2.37;;
65710;SDS011;52690;54.496;9.030;2023-04-25T11:04:44;13.20;;;2.25;;
65710;SDS011;52690;54.496;9.030;2023-04-25T11:06:46;17.40;;;2.83;;
65710;SDS011;52690;54.496;9.030;2023-04-25T11:08:50;12.75;;;2.90;;
65710;SDS011;52690;54.496;9.030;2023-04-25T11:10:51;11.32;;;2.45;;
65710;SDS011;52690;54.496;9.030;2023-04-25T11:12:51;11.10;;;2.45;;
65710;SDS011;52690;54.496;9.030;2023-04-25T11:14:57;13.50;;;2.70;;
65710;SDS011;52690;54.496;9.030;2023-04-25T11:16:58;9.30;;;2.00;;
65710;SDS011;52690;54.496;9.030;2023-04-25T11:18:59;8.38;;;1.95;;
65710;SDS011;52690;54.496;9.030;2023-04-25T11:20:59;8.90;;;2.15;;
65710;SDS011;52690;54.496;9.030;2023-04-25T11:23:00;9.25;;;2.38;;
65710;SDS011;52690;54.496;9.030;2023-04-25T11:25:04;8.53;;;2.07;;
65710;SDS011;52690;54.496;9.030;2023-04-25T11:27:04;11.05;;;2.20;;
65710;SDS011;52690;54.496;9.030;2023-04-25T11:29:04;9.80;;;2.42;;
65710;SDS011;52690;54.496;9.030;2023-04-25T11:31:05;15.57;;;2.17;;
65710;SDS011;52690;54.496;9.030;2023-04-25T11:33:05;9.20;;;1.85;;
65710;SDS011;52690;54.496;9.030;2023-04-25T11:35:07;10.00;;;2.10;;
65710;SDS011;52690;54.496;9.030;2023-04-25T11:37:07;10.88;;;2.42;;
65710;SDS011;52690;54.496;9.030;2023-04-25T11:39:07;9.30;;;1.97;;
65710;SDS011;52690;54.496;9.030;2023-04-25T11:41:07;10.90;;;2.13;;
65710;SDS011;52690;54.496;9.030;2023-04-25T11:43:08;12.87;;;2.10;;
65710;SDS011;52690;54.496;9.030;2023-04-25T11:45:08;8.73;;;1.90;;
65710;SDS011;52690;54.496;9.030;2023-04-25T11:47:09;13.77;;;2.33;;
65710;SDS011;52690;54.496;9.030;2023-04-25T11:49:09;8.83;;;2.03;;
65710;SDS011;52690;54.496;9.030;2023-04-25T11:51:10;11.37;;;2.10;;
65710;SDS011;52690;54.496;9.030;2023-04-25T11:53:11;6.63;;;1.80;;
65710;SDS011;52690;54.496;9.030;2023-04-25T11:55:12;15.60;;;2.30;;
65710;SDS011;52690;54.496;9.030;2023-04-25T11:57:13;8.57;;;1.45;;
65710;SDS011;52690;54.496;9.030;2023-04-25T11:59:13;9.70;;;1.60;;
65710;SDS011;52690;54.496;9.030;2023-04-25T12:01:24;13.10;;;2.10;;